Time;durP1;ratioP1;P1;durP2;ratioP2;P2;SDS_P1;SDS_P2;PMS_P1;PMS_P2;Temp;Humidity;BMP_temperature;BMP_pressure;BME280_temperature;BME280_humidity;BME280_pressure;Samples;Min_cycle;Max_cycle;Signal;HPM_P1;HPM_P2
2023/02/11 00:01:10;;;;;;;46.22;28.13;;;;;;;;;;5046788;28;20017;-65
2023/02/11 00:03:37;;;;;;;48.63;31.58;;;;;;;;;;5046023;28;20033;-65
2023/02/11 00:06:04;;;;;;;52.45;33.33;;;;;;;;;;5029460;28;20115;-67
2023/02/11 00:08:30;;;;;;;51.22;32.28;;;;;;;;;;5047528;28;20391;-65
2023/02/11 00:10:57;;;;;;;54.60;31.10;;;;;;;;;;5047481;28;20040;-67
2023/02/11 00:13:23;;;;;;;53.42;33.03;;;;;;;;;;5045868;28;20083;-66
2023/02/11 00:15:49;;;;;;;46.47;27.73;;;;;;;;;;5047105;28;20037;-66
2023/02/11 00:18:16;;;;;;;55.22;30.33;;;;;;;;;;5029106;28;20079;-66
2023/02/11 00:20:42;;;;;;;50.80;29.55;;;;;;;;;;5029623;28;20600;-66
2023/02/11 00:23:08;;;;;;;51.25;31.20;;;;;;;;;;5039639;28;20032;-64
2023/02/11 00:25:37;;;;;;;48.25;29.40;;;;;;;;;;5026619;28;20100;-66
2023/02/11 00:28:04;;;;;;;50.15;29.30;;;;;;;;;;5027483;28;20458;-67
2023/02/11 00:30:30;;;;;;;49.13;31.00;;;;;;;;;;5027229;28;20048;-66
2023/02/11 00:32:56;;;;;;;48.53;26.70;;;;;;;;;;5028207;28;20033;-63
2023/02/11 00:35:22;;;;;;;52.33;30.15;;;;;;;;;;5029010;28;20037;-66
2023/02/11 00:37:48;;;;;;;49.08;29.02;;;;;;;;;;5032854;28;20026;-67
2023/02/11 00:40:14;;;;;;;47.25;26.35;;;;;;;;;;5033723;28;20026;-67
2023/02/11 00:42:41;;;;;;;45.53;27.75;;;;;;;;;;5034609;28;20032;-66
2023/02/11 00:45:08;;;;;;;53.20;32.05;;;;;;;;;;5034297;28;20030;-66
2023/02/11 00:47:35;;;;;;;51.67;28.33;;;;;;;;;;5034856;28;20370;-64
2023/02/11 00:50:03;;;;;;;54.53;29.85;;;;;;;;;;5032843;28;20029;-63
2023/02/11 00:52:29;;;;;;;51.20;30.83;;;;;;;;;;5034565;28;20033;-64
2023/02/11 00:54:55;;;;;;;51.28;29.55;;;;;;;;;;5034564;28;20504;-64
2023/02/11 00:57:21;;;;;;;44.47;27.00;;;;;;;;;;5034914;28;20028;-66
2023/02/11 00:59:47;;;;;;;52.25;29.92;;;;;;;;;;5051443;22;20075;-57
2023/02/11 01:02:13;;;;;;;45.50;25.45;;;;;;;;;;5036005;28;20036;-55
2023/02/11 01:04:39;;;;;;;49.60;27.65;;;;;;;;;;5053128;28;20369;-58
2023/02/11 01:07:05;;;;;;;48.53;30.35;;;;;;;;;;5053724;28;20021;-55
2023/02/11 01:09:31;;;;;;;42.17;25.83;;;;;;;;;;5053633;28;20013;-57
2023/02/11 01:11:57;;;;;;;44.78;26.17;;;;;;;;;;5035797;28;20017;-58
2023/02/11 01:14:23;;;;;;;45.58;24.85;;;;;;;;;;5052798;28;20032;-58
2023/02/11 01:16:49;;;;;;;49.53;27.13;;;;;;;;;;5053531;28;20079;-52
2023/02/11 01:19:15;;;;;;;42.33;26.77;;;;;;;;;;5053465;28;20485;-56
2023/02/11 01:21:41;;;;;;;51.70;30.83;;;;;;;;;;5035655;28;20057;-59
2023/02/11 01:24:07;;;;;;;44.60;29.15;;;;;;;;;;5052686;28;20044;-54
2023/02/11 01:26:33;;;;;;;48.10;28.58;;;;;;;;;;5053338;28;20029;-57
2023/02/11 01:28:59;;;;;;;42.42;27.48;;;;;;;;;;5053228;28;20481;-56
2023/02/11 01:31:26;;;;;;;46.55;28.75;;;;;;;;;;5052984;28;20028;-56
2023/02/11 01:33:52;;;;;;;48.15;28.85;;;;;;;;;;5052587;28;20053;-53
2023/02/11 01:36:18;;;;;;;48.22;27.33;;;;;;;;;;5053146;28;20021;-57
2023/02/11 01:38:44;;;;;;;46.22;28.27;;;;;;;;;;5053066;28;20025;-54
2023/02/11 01:41:11;;;;;;;48.80;28.42;;;;;;;;;;5053147;28;20397;-57
2023/02/11 01:43:39;;;;;;;45.80;27.50;;;;;;;;;;5052348;28;20082;-57
2023/02/11 01:46:17;;;;;;;48.58;30.52;;;;;;;;;;5052980;28;20025;-56
2023/02/11 01:48:45;;;;;;;52.22;29.05;;;;;;;;;;5033942;28;20029;-55
2023/02/11 01:51:17;;;;;;;47.92;26.42;;;;;;;;;;5052770;28;20167;-54
2023/02/11 01:59:45;;;;;;;43.67;27.50;;;;;;;;;;5052515;28;20543;-53
2023/02/11 02:02:12;;;;;;;43.92;28.60;;;;;;;;;;4981694;28;20535;-56
2023/02/11 02:04:41;;;;;;;48.63;29.30;;;;;;;;;;5051928;28;20027;-57
2023/02/11 02:07:13;;;;;;;42.85;27.33;;;;;;;;;;5034726;28;20389;-56
2023/02/11 02:09:41;;;;;;;43.15;26.42;;;;;;;;;;5052756;28;20025;-55
2023/02/11 02:12:07;;;;;;;48.83;29.70;;;;;;;;;;5053207;28;20049;-54
2023/02/11 02:14:37;;;;;;;44.53;27.60;;;;;;;;;;5051861;28;20036;-56
2023/02/11 02:17:03;;;;;;;42.70;26.30;;;;;;;;;;5034627;28;20071;-55
2023/02/11 02:19:32;;;;;;;40.67;26.70;;;;;;;;;;5052530;28;20600;-56
2023/02/11 02:22:01;;;;;;;42.83;26.63;;;;;;;;;;5052536;28;20033;-54
2023/02/11 02:24:42;;;;;;;43.90;26.15;;;;;;;;;;5051528;28;20040;-55
2023/02/11 02:27:11;;;;;;;44.47;28.20;;;;;;;;;;5052302;28;20025;-57
2023/02/11 02:29:56;;;;;;;40.63;26.70;;;;;;;;;;5052225;28;20401;-55
2023/02/11 02:32:25;;;;;;;41.78;25.10;;;;;;;;;;5052120;28;20052;-56
2023/02/11 02:35:10;;;;;;;42.80;26.10;;;;;;;;;;5051234;28;20021;-57
2023/02/11 02:37:55;;;;;;;40.90;23.75;;;;;;;;;;5051993;28;20112;-55
2023/02/11 02:40:25;;;;;;;42.08;27.52;;;;;;;;;;5051837;28;20028;-56
2023/02/11 02:42:52;;;;;;;43.33;25.00;;;;;;;;;;5051920;28;20017;-53
2023/02/11 02:45:18;;;;;;;44.83;23.50;;;;;;;;;;5033386;28;20032;-57
2023/02/11 02:47:44;;;;;;;38.90;25.42;;;;;;;;;;5033711;28;20025;-57
2023/02/11 02:50:11;;;;;;;36.83;23.02;;;;;;;;;;5051836;28;20100;-57
2023/02/11 02:53:02;;;;;;;41.45;24.02;;;;;;;;;;5051676;28;20077;-57
2023/02/11 02:55:38;;;;;;;41.85;25.30;;;;;;;;;;5033714;28;20032;-58
2023/02/11 02:58:07;;;;;;;39.92;25.45;;;;;;;;;;5051446;28;20021;-58
2023/02/11 03:00:42;;;;;;;39.63;24.58;;;;;;;;;;5051606;28;20094;-58
2023/02/11 03:03:27;;;;;;;39.72;22.63;;;;;;;;;;5051167;28;20447;-58
2023/02/11 03:06:05;;;;;;;45.40;25.50;;;;;;;;;;5051746;28;20039;-59
2023/02/11 03:08:38;;;;;;;39.55;21.27;;;;;;;;;;5052120;28;20489;-58
2023/02/11 03:11:05;;;;;;;41.28;24.88;;;;;;;;;;5034432;28;20029;-57
2023/02/11 03:13:32;;;;;;;36.25;23.63;;;;;;;;;;5051015;28;20082;-56
2023/02/11 03:15:59;;;;;;;40.15;23.80;;;;;;;;;;5051728;28;20029;-57
2023/02/11 03:18:27;;;;;;;39.35;22.38;;;;;;;;;;5052216;28;20025;-59
2023/02/11 03:20:53;;;;;;;39.40;23.13;;;;;;;;;;5051710;28;20021;-58
2023/02/11 03:23:32;;;;;;;38.70;24.05;;;;;;;;;;5051272;28;20362;-59
2023/02/11 03:25:58;;;;;;;;;;;;;;;;;;5034142;28;20511;-58
2023/02/11 03:28:30;;;;;;;37.05;20.92;;;;;;;;;;5033524;28;19904;-58
2023/02/11 03:31:10;;;;;;;37.95;21.80;;;;;;;;;;5052206;28;20116;-58
2023/02/11 03:33:55;;;;;;;38.72;20.52;;;;;;;;;;5050551;28;20044;-57
2023/02/11 03:36:23;;;;;;;38.20;22.67;;;;;;;;;;5033143;28;20029;-57
2023/02/11 03:38:51;;;;;;;34.85;21.38;;;;;;;;;;5051078;28;20029;-55
2023/02/11 03:41:19;;;;;;;32.57;20.77;;;;;;;;;;5050920;28;20028;-58
2023/02/11 03:43:48;;;;;;;37.92;22.33;;;;;;;;;;5050151;28;20063;-58
2023/02/11 03:46:15;;;;;;;34.75;21.85;;;;;;;;;;5050963;28;20036;-56
2023/02/11 03:48:43;;;;;;;39.33;22.98;;;;;;;;;;5050843;28;20025;-55
2023/02/11 03:51:10;;;;;;;41.30;23.80;;;;;;;;;;5032968;28;20021;-56
2023/02/11 03:53:38;;;;;;;34.22;22.02;;;;;;;;;;5032220;28;20130;-58
2023/02/11 03:56:06;;;;;;;41.03;24.23;;;;;;;;;;5050902;28;20048;-58
2023/02/11 03:58:32;;;;;;;;;;;;;;;;;;5051149;28;20056;-58
2023/02/11 04:01:00;;;;;;;38.20;21.90;;;;;;;;;;5050872;28;19905;-58
2023/02/11 04:03:26;;;;;;;41.05;25.10;;;;;;;;;;5050332;28;20021;-56
2023/02/11 04:05:53;;;;;;;37.58;23.77;;;;;;;;;;5050533;28;20027;-55
2023/02/11 04:08:19;;;;;;;40.33;26.25;;;;;;;;;;5050838;28;20029;-57
2023/02/11 04:10:45;;;;;;;38.50;24.33;;;;;;;;;;5050884;28;20027;-59
2023/02/11 04:13:11;;;;;;;38.83;25.85;;;;;;;;;;5054016;28;20033;-58
2023/02/11 04:15:37;;;;;;;38.33;26.25;;;;;;;;;;5054774;28;20025;-58
2023/02/11 04:18:03;;;;;;;41.42;24.90;;;;;;;;;;5054796;28;20028;-58
2023/02/11 04:20:29;;;;;;;43.42;25.30;;;;;;;;;;5054816;28;20025;-57
2023/02/11 04:22:55;;;;;;;40.97;24.40;;;;;;;;;;5054516;28;20039;-58
2023/02/11 04:25:21;;;;;;;38.78;25.52;;;;;;;;;;5054446;28;20104;-59
2023/02/11 04:27:47;;;;;;;42.05;24.80;;;;;;;;;;5054358;28;20033;-56
2023/02/11 04:30:13;;;;;;;41.78;27.60;;;;;;;;;;5036163;28;20029;-58
2023/02/11 04:32:39;;;;;;;43.72;24.55;;;;;;;;;;5054585;28;20028;-56
2023/02/11 04:35:06;;;;;;;45.75;25.33;;;;;;;;;;5053599;28;20025;-58
2023/02/11 04:37:32;;;;;;;38.53;24.98;;;;;;;;;;5054198;28;20074;-56
2023/02/11 04:39:58;;;;;;;45.40;25.35;;;;;;;;;;5054257;28;20092;-58
2023/02/11 04:42:24;;;;;;;46.55;25.33;;;;;;;;;;5036080;28;20379;-56
2023/02/11 04:44:50;;;;;;;46.85;25.30;;;;;;;;;;5053354;28;20017;-53
2023/02/11 04:47:16;;;;;;;37.50;23.98;;;;;;;;;;5054163;28;20108;-53
2023/02/11 04:49:42;;;;;;;40.42;26.77;;;;;;;;;;5053944;28;20025;-58
2023/02/11 04:52:08;;;;;;;38.97;23.95;;;;;;;;;;5036000;28;20075;-58
2023/02/11 04:54:34;;;;;;;44.70;25.20;;;;;;;;;;5035350;28;20032;-58
2023/02/11 04:57:00;;;;;;;43.40;25.63;;;;;;;;;;5053828;28;20392;-57
2023/02/11 04:59:26;;;;;;;37.03;25.02;;;;;;;;;;5035620;28;20095;-58
2023/02/11 05:01:52;;;;;;;42.42;23.95;;;;;;;;;;5053987;28;20397;-55
2023/02/11 05:04:18;;;;;;;42.80;24.77;;;;;;;;;;5053212;28;20052;-57
2023/02/11 05:06:44;;;;;;;47.58;24.63;;;;;;;;;;5035890;28;20032;-56
2023/02/11 05:09:11;;;;;;;38.92;24.77;;;;;;;;;;5053536;28;20032;-57
2023/02/11 05:11:38;;;;;;;39.03;24.98;;;;;;;;;;5053585;28;20025;-57
2023/02/11 05:14:04;;;;;;;42.35;24.77;;;;;;;;;;5052985;28;20053;-54
2023/02/11 05:16:30;;;;;;;40.88;25.40;;;;;;;;;;5053376;28;20025;-54
2023/02/11 05:18:57;;;;;;;36.20;23.27;;;;;;;;;;5053423;28;20044;-53
2023/02/11 05:21:23;;;;;;;41.05;29.33;;;;;;;;;;5053458;28;20036;-56
2023/02/11 05:23:49;;;;;;;38.85;23.25;;;;;;;;;;5052599;28;20025;-57
2023/02/11 05:26:15;;;;;;;40.03;24.65;;;;;;;;;;5053484;28;20029;-55
2023/02/11 05:28:42;;;;;;;41.95;24.70;;;;;;;;;;5053479;28;20041;-55
2023/02/11 05:31:08;;;;;;;41.72;24.92;;;;;;;;;;5035481;28;20071;-52
2023/02/11 05:33:34;;;;;;;35.97;23.70;;;;;;;;;;5052684;28;20045;-57
2023/02/11 05:36:01;;;;;;;42.83;27.13;;;;;;;;;;5053210;28;20029;-56
2023/02/11 05:38:27;;;;;;;40.60;26.15;;;;;;;;;;5053106;28;20017;-56
2023/02/11 05:40:53;;;;;;;40.65;24.10;;;;;;;;;;5053188;28;20554;-54
2023/02/11 05:43:19;;;;;;;42.90;27.63;;;;;;;;;;5052437;28;20029;-53
2023/02/11 05:45:45;;;;;;;43.30;26.17;;;;;;;;;;5053143;28;20074;-57
2023/02/11 05:48:11;;;;;;;46.03;26.92;;;;;;;;;;5048062;28;20500;-55
2023/02/11 05:50:37;;;;;;;43.85;28.33;;;;;;;;;;5044753;28;20036;-58
2023/02/11 05:53:04;;;;;;;40.30;26.23;;;;;;;;;;5026115;28;20017;-57
2023/02/11 05:55:30;;;;;;;37.60;24.67;;;;;;;;;;5050171;28;20017;-57
2023/02/11 05:57:56;;;;;;;41.17;25.92;;;;;;;;;;5044741;28;20028;-58
2023/02/11 06:00:22;;;;;;;42.17;26.83;;;;;;;;;;5053195;28;20033;-55
2023/02/11 06:02:48;;;;;;;46.78;28.42;;;;;;;;;;5053087;28;20060;-55
2023/02/11 06:05:14;;;;;;;40.83;25.50;;;;;;;;;;5034179;28;20025;-57
2023/02/11 06:07:40;;;;;;;37.25;23.92;;;;;;;;;;5044152;28;20379;-57
2023/02/11 06:10:06;;;;;;;38.35;24.42;;;;;;;;;;5052467;28;20074;-55
2023/02/11 06:12:32;;;;;;;40.63;24.23;;;;;;;;;;5044344;28;20090;-56
2023/02/11 06:14:58;;;;;;;44.50;27.73;;;;;;;;;;5051667;28;20033;-55
2023/02/11 06:17:24;;;;;;;40.90;26.60;;;;;;;;;;5052636;28;20025;-56
2023/02/11 06:19:50;;;;;;;47.95;27.88;;;;;;;;;;5052351;28;20021;-57
2023/02/11 06:22:16;;;;;;;41.83;27.65;;;;;;;;;;5044546;28;20505;-57
2023/02/11 06:24:42;;;;;;;45.72;26.90;;;;;;;;;;5014013;28;20379;-55
2023/02/11 06:27:08;;;;;;;45.38;27.75;;;;;;;;;;5032436;28;20088;-57
2023/02/11 06:29:34;;;;;;;43.20;27.55;;;;;;;;;;5038303;28;20029;-57
2023/02/11 06:32:00;;;;;;;50.40;29.58;;;;;;;;;;5046998;28;20045;-57
2023/02/11 06:34:26;;;;;;;41.78;26.60;;;;;;;;;;5033254;28;20025;-57
2023/02/11 06:36:52;;;;;;;45.78;28.45;;;;;;;;;;5034104;28;20040;-57
2023/02/11 06:39:18;;;;;;;45.00;28.67;;;;;;;;;;5051618;28;20024;-56
2023/02/11 06:41:44;;;;;;;42.03;27.08;;;;;;;;;;5051925;28;20501;-55
2023/02/11 06:44:10;;;;;;;48.72;29.38;;;;;;;;;;5051099;28;20029;-57
2023/02/11 06:46:36;;;;;;;45.75;29.20;;;;;;;;;;5039523;28;20029;-55
2023/02/11 06:49:02;;;;;;;47.53;30.25;;;;;;;;;;5031857;28;20075;-54
2023/02/11 06:51:28;;;;;;;45.45;30.13;;;;;;;;;;5032125;28;20032;-56
2023/02/11 06:53:54;;;;;;;48.28;30.20;;;;;;;;;;5031265;28;20563;-57
2023/02/11 06:56:22;;;;;;;47.95;28.45;;;;;;;;;;5031657;28;20101;-57
2023/02/11 06:58:52;;;;;;;52.28;28.60;;;;;;;;;;5049150;23;20965;-63
2023/02/11 07:01:18;;;;;;;43.72;28.48;;;;;;;;;;5049954;28;20409;-65
2023/02/11 07:03:45;;;;;;;54.80;29.30;;;;;;;;;;5049159;28;20037;-65
2023/02/11 07:06:13;;;;;;;47.67;31.25;;;;;;;;;;5051260;28;20021;-64
2023/02/11 07:08:41;;;;;;;48.38;29.38;;;;;;;;;;5024539;28;20036;-65
2023/02/11 07:11:16;;;;;;;46.37;29.77;;;;;;;;;;5031365;28;20398;-65
2023/02/11 07:13:42;;;;;;;47.45;30.42;;;;;;;;;;5046387;28;20078;-65
2023/02/11 07:16:10;;;;;;;47.70;29.35;;;;;;;;;;5037840;28;20097;-65
2023/02/11 07:18:36;;;;;;;42.38;28.08;;;;;;;;;;5030623;28;20032;-65
2023/02/11 07:21:05;;;;;;;49.45;30.08;;;;;;;;;;5030808;28;20498;-66
2023/02/11 07:23:32;;;;;;;48.83;32.55;;;;;;;;;;5024274;28;20018;-65
2023/02/11 07:26:01;;;;;;;57.00;32.58;;;;;;;;;;5050614;28;20029;-65
2023/02/11 07:28:27;;;;;;;55.50;34.17;;;;;;;;;;5032923;28;20032;-66
2023/02/11 07:30:53;;;;;;;51.50;31.52;;;;;;;;;;5032893;28;20031;-64
2023/02/11 07:33:19;;;;;;;53.90;30.23;;;;;;;;;;5049699;28;20411;-66
2023/02/11 07:35:45;;;;;;;58.97;30.70;;;;;;;;;;5050241;28;20025;-65
2023/02/11 07:38:11;;;;;;;52.72;31.85;;;;;;;;;;5050659;28;20060;-67
2023/02/11 07:40:37;;;;;;;57.80;32.58;;;;;;;;;;5050318;28;20085;-64
2023/02/11 07:43:03;;;;;;;52.63;30.30;;;;;;;;;;5031390;28;20537;-63
2023/02/11 07:45:29;;;;;;;52.70;29.88;;;;;;;;;;5049690;28;20033;-66
2023/02/11 07:47:55;;;;;;;49.78;29.63;;;;;;;;;;5049546;28;20033;-65
2023/02/11 07:50:21;;;;;;;53.90;32.90;;;;;;;;;;5050337;28;20029;-65
2023/02/11 07:52:47;;;;;;;58.15;32.22;;;;;;;;;;5050261;28;20074;-65
2023/02/11 07:55:13;;;;;;;49.13;30.50;;;;;;;;;;5049473;28;20029;-65
2023/02/11 07:57:40;;;;;;;55.05;30.73;;;;;;;;;;5049948;28;20036;-65
2023/02/11 08:00:06;;;;;;;55.45;30.90;;;;;;;;;;5049913;28;20382;-66
2023/02/11 08:02:32;;;;;;;54.05;29.63;;;;;;;;;;5031909;28;20551;-65
2023/02/11 08:04:58;;;;;;;48.80;29.77;;;;;;;;;;5049173;28;20072;-66
2023/02/11 08:07:24;;;;;;;54.30;29.70;;;;;;;;;;5049794;28;20021;-65
2023/02/11 08:09:51;;;;;;;58.25;31.38;;;;;;;;;;5049570;28;20032;-66
2023/02/11 08:12:17;;;;;;;57.00;31.88;;;;;;;;;;5049852;28;20098;-66
2023/02/11 08:14:43;;;;;;;58.70;32.50;;;;;;;;;;5031121;28;20026;-64
2023/02/11 08:17:09;;;;;;;52.63;31.75;;;;;;;;;;5049714;28;20036;-66
2023/02/11 08:19:34;;;;;;;55.47;32.30;;;;;;;;;;5050276;28;20099;-66
2023/02/11 08:22:01;;;;;;;56.55;33.75;;;;;;;;;;5031985;28;20055;-66
2023/02/11 08:24:27;;;;;;;59.90;32.00;;;;;;;;;;5048802;28;20021;-64
2023/02/11 08:26:53;;;;;;;52.20;31.10;;;;;;;;;;5049391;28;20028;-64
2023/02/11 08:29:19;;;;;;;53.22;32.35;;;;;;;;;;5049454;28;20113;-63
2023/02/11 08:31:46;;;;;;;45.85;27.45;;;;;;;;;;5049064;28;20131;-64
2023/02/11 08:34:13;;;;;;;56.13;31.23;;;;;;;;;;5048668;28;20090;-64
2023/02/11 08:36:41;;;;;;;52.38;31.88;;;;;;;;;;5031417;28;20028;-61
2023/02/11 08:39:09;;;;;;;46.38;29.02;;;;;;;;;;5050160;28;20025;-64
2023/02/11 08:41:35;;;;;;;57.73;31.40;;;;;;;;;;5049430;28;20028;-64
2023/02/11 08:44:01;;;;;;;61.58;33.83;;;;;;;;;;5030438;28;20075;-65
2023/02/11 08:46:27;;;;;;;62.05;34.03;;;;;;;;;;5049104;28;20112;-65
2023/02/11 08:48:53;;;;;;;61.63;33.20;;;;;;;;;;5048912;28;20061;-63
2023/02/11 08:51:21;;;;;;;61.17;33.75;;;;;;;;;;5049174;28;20378;-64
2023/02/11 08:53:47;;;;;;;60.28;32.60;;;;;;;;;;5048381;28;20043;-64
2023/02/11 08:56:15;;;;;;;44.85;29.10;;;;;;;;;;5049037;28;20080;-65
2023/02/11 08:58:42;;;;;;;53.25;33.25;;;;;;;;;;5051641;28;20085;-64
2023/02/11 09:01:19;;;;;;;54.25;31.00;;;;;;;;;;5052680;28;20021;-64
2023/02/11 09:03:45;;;;;;;56.75;31.98;;;;;;;;;;5052073;28;20552;-64
2023/02/11 09:06:11;;;;;;;61.40;32.92;;;;;;;;;;5052097;28;20104;-64
2023/02/11 09:08:38;;;;;;;45.25;26.60;;;;;;;;;;5052250;28;20075;-65
2023/02/11 09:11:04;;;;;;;47.75;31.05;;;;;;;;;;5044469;28;20029;-63
2023/02/11 09:13:31;;;;;;;57.28;29.85;;;;;;;;;;5047534;28;20468;-64
2023/02/11 09:15:57;;;;;;;58.92;32.97;;;;;;;;;;5032606;28;20025;-64
2023/02/11 09:18:23;;;;;;;53.33;28.50;;;;;;;;;;5039386;28;20052;-64
2023/02/11 09:20:49;;;;;;;55.67;32.50;;;;;;;;;;5052230;28;20029;-63
2023/02/11 09:23:15;;;;;;;56.40;33.38;;;;;;;;;;5051462;28;20067;-63
2023/02/11 09:25:41;;;;;;;54.25;33.33;;;;;;;;;;5050973;28;20037;-63
2023/02/11 09:28:08;;;;;;;59.60;31.88;;;;;;;;;;5014137;28;20033;-64
2023/02/11 09:30:34;;;;;;;52.28;31.65;;;;;;;;;;5042411;28;20548;-63
2023/02/11 09:33:00;;;;;;;55.08;31.50;;;;;;;;;;5043462;28;20121;-63
2023/02/11 09:35:26;;;;;;;54.90;32.30;;;;;;;;;;5033300;28;20125;-63
2023/02/11 09:37:52;;;;;;;51.30;29.60;;;;;;;;;;5051996;28;20557;-63
2023/02/11 09:40:18;;;;;;;63.72;32.55;;;;;;;;;;5051477;28;20032;-63
2023/02/11 09:42:46;;;;;;;56.03;31.20;;;;;;;;;;5051713;28;20480;-64
2023/02/11 09:45:15;;;;;;;55.87;32.83;;;;;;;;;;5050869;28;20032;-64
2023/02/11 09:48:04;;;;;;;68.90;34.30;;;;;;;;;;5051659;28;20032;-63
2023/02/11 09:50:33;;;;;;;59.95;32.83;;;;;;;;;;5041137;28;20477;-64
2023/02/11 09:53:04;;;;;;;55.65;32.35;;;;;;;;;;5051092;28;20459;-64
2023/02/11 09:55:36;;;;;;;64.03;34.67;;;;;;;;;;5051216;28;20210;-64
2023/02/11 09:58:16;;;;;;;55.78;31.10;;;;;;;;;;5051310;28;20419;-64
2023/02/11 10:00:48;;;;;;;56.35;32.30;;;;;;;;;;5051276;28;20059;-64
2023/02/11 10:03:14;;;;;;;61.25;32.67;;;;;;;;;;5033026;28;20382;-64
2023/02/11 10:05:55;;;;;;;49.72;29.55;;;;;;;;;;5033290;28;20040;-62
2023/02/11 10:09:00;;;;;;;52.30;32.88;;;;;;;;;;5032915;28;20032;-64
2023/02/11 10:11:30;;;;;;;50.72;31.85;;;;;;;;;;4970071;28;20038;-64
2023/02/11 10:14:16;;;;;;;44.22;27.92;;;;;;;;;;4969257;28;20046;-64
2023/02/11 10:16:57;;;;;;;61.78;32.83;;;;;;;;;;4963341;28;20453;-63
2023/02/11 10:19:29;;;;;;;57.22;32.97;;;;;;;;;;5051087;28;20051;-62
2023/02/11 10:21:59;;;;;;;55.80;31.35;;;;;;;;;;5050818;28;20025;-63
2023/02/11 10:24:27;;;;;;;57.20;33.60;;;;;;;;;;5050040;28;20025;-62
2023/02/11 10:26:53;;;;;;;50.83;29.55;;;;;;;;;;5050755;28;20017;-64
2023/02/11 10:29:37;;;;;;;59.35;32.58;;;;;;;;;;5050848;28;20107;-64
2023/02/11 10:32:07;;;;;;;59.50;34.28;;;;;;;;;;5030808;28;20104;-63
2023/02/11 10:34:33;;;;;;;53.95;30.60;;;;;;;;;;5030217;28;20013;-61
2023/02/11 10:36:59;;;;;;;56.58;31.05;;;;;;;;;;5030578;28;20033;-62
2023/02/11 10:39:26;;;;;;;55.35;33.78;;;;;;;;;;5030530;28;20021;-61
2023/02/11 10:41:54;;;;;;;57.63;31.75;;;;;;;;;;5012889;28;20069;-61
2023/02/11 10:44:27;;;;;;;54.03;29.73;;;;;;;;;;5029880;28;20033;-61
2023/02/11 10:46:53;;;;;;;48.88;27.83;;;;;;;;;;5030285;28;20106;-61
2023/02/11 10:49:36;;;;;;;56.67;30.48;;;;;;;;;;5030430;28;20109;-64
2023/02/11 10:52:31;;;;;;;51.40;28.77;;;;;;;;;;5030444;28;20167;-63
2023/02/11 10:54:58;;;;;;;53.95;31.42;;;;;;;;;;5008920;28;20087;-61
2023/02/11 10:57:26;;;;;;;55.97;32.53;;;;;;;;;;5030360;28;20044;-63
2023/02/11 10:59:56;;;;;;;59.55;34.10;;;;;;;;;;5030190;28;20449;-64
2023/02/11 11:02:33;;;;;;;54.80;32.97;;;;;;;;;;5030403;28;20400;-63
2023/02/11 11:05:01;;;;;;;66.72;33.00;;;;;;;;;;5029650;28;20053;-64
2023/02/11 11:07:28;;;;;;;60.60;33.95;;;;;;;;;;5034918;28;20390;-63
2023/02/11 11:10:02;;;;;;;58.70;32.15;;;;;;;;;;5045292;28;20091;-63
2023/02/11 11:12:57;;;;;;;51.95;29.90;;;;;;;;;;5044119;28;20453;-65
2023/02/11 11:15:24;;;;;;;55.45;31.88;;;;;;;;;;5023545;28;20116;-64
2023/02/11 11:18:08;;;;;;;52.63;31.02;;;;;;;;;;5050143;28;20017;-64
2023/02/11 11:20:35;;;;;;;61.05;30.88;;;;;;;;;;5031744;28;20029;-65
2023/02/11 11:23:18;;;;;;;58.10;31.92;;;;;;;;;;5049455;28;20080;-64
2023/02/11 11:25:45;;;;;;;57.35;33.17;;;;;;;;;;5031795;28;20115;-63
2023/02/11 11:28:23;;;;;;;66.82;34.03;;;;;;;;;;5031640;28;20040;-65
2023/02/11 11:30:49;;;;;;;61.15;33.28;;;;;;;;;;5049553;28;20481;-65
2023/02/11 11:33:26;;;;;;;64.95;34.42;;;;;;;;;;5048863;28;20418;-65
2023/02/11 11:35:58;;;;;;;50.47;29.65;;;;;;;;;;5031473;28;20481;-65
2023/02/11 11:38:24;;;;;;;60.25;30.85;;;;;;;;;;5049347;28;20445;-64
2023/02/11 11:41:09;;;;;;;57.92;31.63;;;;;;;;;;5049398;28;20021;-65
2023/02/11 11:43:36;;;;;;;52.40;30.77;;;;;;;;;;5048674;28;20028;-66
2023/02/11 11:46:05;;;;;;;63.05;34.55;;;;;;;;;;5049500;28;20021;-64
2023/02/11 11:48:30;;;;;;;;;;;;;;;;;;5031737;28;20032;-65
2023/02/11 11:50:59;;;;;;;58.42;32.90;;;;;;;;;;5049323;28;19999;-63
2023/02/11 11:53:40;;;;;;;56.35;35.00;;;;;;;;;;5048666;28;20039;-63
2023/02/11 11:56:11;;;;;;;53.03;32.42;;;;;;;;;;5049504;28;20032;-62
2023/02/11 11:58:37;;;;;;;60.17;35.08;;;;;;;;;;5036493;28;20025;-64
2023/02/11 12:01:14;;;;;;;53.88;31.15;;;;;;;;;;5048769;28;20374;-63
2023/02/11 12:03:45;;;;;;;62.72;33.97;;;;;;;;;;5048768;28;20025;-65
2023/02/11 12:06:14;;;;;;;56.50;32.42;;;;;;;;;;5049420;28;20088;-64
2023/02/11 12:08:40;;;;;;;63.80;34.90;;;;;;;;;;5049175;28;20025;-63
2023/02/11 12:11:42;;;;;;;51.58;30.30;;;;;;;;;;5049153;28;20455;-62
2023/02/11 12:14:08;;;;;;;57.05;31.55;;;;;;;;;;4947797;28;20038;-63
2023/02/11 12:17:06;;;;;;;56.60;32.97;;;;;;;;;;5028686;28;20116;-63
2023/02/11 12:19:32;;;;;;;;;;;;;;;;;;4995534;28;20033;-63
2023/02/11 12:22:10;;;;;;;60.92;35.13;;;;;;;;;;5030680;28;20396;-64
2023/02/11 12:24:43;;;;;;;57.00;33.08;;;;;;;;;;5048454;28;20025;-64
2023/02/11 12:27:20;;;;;;;46.45;31.48;;;;;;;;;;5031208;28;20043;-64
2023/02/11 12:29:46;;;;;;;62.25;33.92;;;;;;;;;;5048810;28;20092;-64
2023/02/11 12:32:21;;;;;;;60.70;34.45;;;;;;;;;;5049654;28;20449;-61
2023/02/11 12:34:47;;;;;;;51.00;32.38;;;;;;;;;;5052176;28;20104;-65
2023/02/11 12:37:18;;;;;;;70.25;37.72;;;;;;;;;;5052809;28;20029;-64
2023/02/11 12:39:45;;;;;;;50.13;31.90;;;;;;;;;;5052691;28;20028;-64
2023/02/11 12:45:10;;;;;;;58.90;34.15;;;;;;;;;;5052181;28;20135;-61
2023/02/11 12:47:36;;;;;;;63.33;34.47;;;;;;;;;;5052312;28;20132;-64
2023/02/11 12:50:11;;;;;;;54.63;33.20;;;;;;;;;;5045782;28;20167;-63
2023/02/11 12:52:40;;;;;;;54.88;34.65;;;;;;;;;;5051825;28;20036;-64
2023/02/11 12:55:35;;;;;;;56.50;34.45;;;;;;;;;;5014055;28;20088;-64
2023/02/11 12:58:02;;;;;;;59.35;33.22;;;;;;;;;;5024684;28;20036;-63
2023/02/11 13:00:38;;;;;;;54.13;33.88;;;;;;;;;;5048258;22;20076;-56
2023/02/11 13:03:12;;;;;;;61.05;34.00;;;;;;;;;;5026478;28;20033;-58
2023/02/11 13:05:40;;;;;;;56.97;32.88;;;;;;;;;;5030535;28;20030;-58
2023/02/11 13:08:15;;;;;;;63.33;35.67;;;;;;;;;;5010476;28;20139;-60
2023/02/11 13:10:42;;;;;;;57.85;32.67;;;;;;;;;;5014772;28;20029;-61
2023/02/11 13:13:22;;;;;;;57.75;35.90;;;;;;;;;;5027356;28;20394;-56
2023/02/11 13:15:54;;;;;;;51.97;32.38;;;;;;;;;;5011088;28;20288;-55
2023/02/11 13:18:20;;;;;;;56.80;32.25;;;;;;;;;;5003943;28;20110;-58
2023/02/11 13:20:59;;;;;;;52.35;32.30;;;;;;;;;;5032079;28;20017;-57
2023/02/11 13:23:51;;;;;;;53.15;33.13;;;;;;;;;;5032081;28;20022;-58
2023/02/11 13:26:36;;;;;;;58.35;34.03;;;;;;;;;;5019595;28;20034;-57
2023/02/11 13:29:21;;;;;;;60.83;33.72;;;;;;;;;;5013222;28;20022;-56
2023/02/11 13:31:54;;;;;;;56.13;31.30;;;;;;;;;;5013854;28;20029;-59
2023/02/11 13:34:22;;;;;;;50.05;32.30;;;;;;;;;;4995684;28;20490;-59
2023/02/11 13:36:56;;;;;;;49.97;30.08;;;;;;;;;;5013599;28;20041;-58
2023/02/11 13:39:22;;;;;;;58.72;36.70;;;;;;;;;;5013862;28;20053;-53
2023/02/11 13:41:49;;;;;;;52.70;34.65;;;;;;;;;;5013113;28;20044;-57
2023/02/11 13:44:21;;;;;;;48.30;30.73;;;;;;;;;;5010715;28;20363;-58
2023/02/11 13:46:52;;;;;;;47.15;29.92;;;;;;;;;;4995583;28;20024;-54
2023/02/11 13:49:27;;;;;;;59.58;33.25;;;;;;;;;;4995386;28;20103;-57
2023/02/11 13:51:54;;;;;;;50.85;29.90;;;;;;;;;;4995395;28;20112;-54
2023/02/11 13:54:37;;;;;;;50.03;31.80;;;;;;;;;;5012387;28;20453;-57
2023/02/11 13:57:15;;;;;;;54.75;31.67;;;;;;;;;;4995181;28;20026;-57
2023/02/11 13:59:41;;;;;;;47.70;28.58;;;;;;;;;;5015086;28;20445;-57
2023/02/11 14:10:55;;;;;;;45.08;29.05;;;;;;;;;;5038556;28;20087;-60
2023/02/11 14:13:24;;;;;;;50.22;29.83;;;;;;;;;;5008024;28;20207;-60
2023/02/11 14:16:03;;;;;;;49.20;29.50;;;;;;;;;;5048822;28;20108;-58
2023/02/11 14:18:39;;;;;;;45.30;27.83;;;;;;;;;;5041342;28;20386;-57
2023/02/11 14:21:18;;;;;;;46.63;29.60;;;;;;;;;;5014834;28;20025;-56
2023/02/11 14:23:44;;;;;;;45.95;29.60;;;;;;;;;;5011432;28;20111;-54
2023/02/11 14:26:10;;;;;;;47.45;29.88;;;;;;;;;;5012526;28;20033;-57
2023/02/11 14:28:38;;;;;;;44.55;26.98;;;;;;;;;;4994477;28;20037;-59
2023/02/11 14:31:09;;;;;;;46.75;28.10;;;;;;;;;;5012858;28;20033;-62
2023/02/11 14:33:51;;;;;;;44.63;26.48;;;;;;;;;;5037595;28;20041;-59
2023/02/11 14:36:22;;;;;;;44.55;28.83;;;;;;;;;;5043410;28;20651;-52
2023/02/11 14:39:01;;;;;;;44.47;27.73;;;;;;;;;;5051518;28;20104;-55
2023/02/11 14:41:27;;;;;;;;;;;;;;;;;;5052079;28;20037;-56
2023/02/11 14:43:56;;;;;;;38.50;24.92;;;;;;;;;;5048530;28;19912;-54
2023/02/11 14:46:23;;;;;;;44.15;26.67;;;;;;;;;;5051437;28;20017;-59
2023/02/11 14:48:51;;;;;;;42.45;26.77;;;;;;;;;;5051314;28;20112;-58